Time;durP1;ratioP1;P1;durP2;ratioP2;P2;SDS_P1;SDS_P2;PMS_P1;PMS_P2;Temp;Humidity;BMP_temperature;BMP_pressure;BME280_temperature;BME280_humidity;BME280_pressure;Samples;Min_cycle;Max_cycle;Signal;HPM_P1;HPM_P2
2022/12/28 00:01:24;;;;;;;0.63;0.63;;;;;;;10.09;59.64;96116.91;4953100;29;21018;-69
2022/12/28 00:03:52;;;;;;;0.33;0.33;;;;;;;10.27;59.26;96124.72;4953146;29;21093;-64
2022/12/28 00:06:21;;;;;;;0.03;0.03;;;;;;;10.41;58.86;96125.31;4952664;29;20889;-63
2022/12/28 00:08:51;;;;;;;0.30;0.30;;;;;;;10.37;58.81;96129.41;4952738;29;20541;-67
2022/12/28 00:11:20;;;;;;;0.00;0.00;;;;;;;10.37;58.74;96134.63;4952773;29;21026;-64
2022/12/28 00:13:58;;;;;;;0.30;0.30;;;;;;;10.27;58.82;96124.72;4952144;29;20917;-67
2022/12/28 00:16:31;;;;;;;0.10;0.10;;;;;;;10.31;59.09;96125.84;4934870;29;20459;-69
2022/12/28 00:19:02;;;;;;;0.20;0.20;;;;;;;10.28;59.58;96130.75;4952445;29;20443;-69
2022/12/28 00:21:30;;;;;;;0.97;0.97;;;;;;;10.48;58.31;96129.44;4952643;29;20447;-65
2022/12/28 00:23:58;;;;;;;0.20;0.20;;;;;;;10.48;57.92;96137.31;4951899;29;20486;-66
2022/12/28 00:26:28;;;;;;;1.60;0.77;;;;;;;10.37;58.84;96140.69;4952922;29;20470;-67
2022/12/28 00:28:54;;;;;;;0.60;0.60;;;;;;;10.34;59.22;96141.16;4952539;29;20561;-65
2022/12/28 00:31:30;;;;;;;0.63;0.63;;;;;;;10.55;58.60;96142.44;4935059;29;20448;-65
2022/12/28 00:33:57;;;;;;;0.00;0.00;;;;;;;10.40;58.64;96145.47;4951931;29;20970;-66
2022/12/28 00:36:24;;;;;;;0.33;0.33;;;;;;;10.46;59.03;96144.59;4951921;29;20447;-64
2022/12/28 00:39:11;;;;;;;0.70;0.70;;;;;;;10.38;58.42;96158.03;4935173;29;20546;-65
2022/12/28 00:41:38;;;;;;;0.77;0.77;;;;;;;10.44;58.74;96157.09;4935192;29;20455;-65
2022/12/28 00:44:07;;;;;;;0.50;0.50;;;;;;;10.62;58.04;96153.63;4952320;29;20487;-63
2022/12/28 00:46:34;;;;;;;1.00;1.00;;;;;;;11.03;56.95;96157.00;4951564;29;20813;-66
2022/12/28 00:49:02;;;;;;;0.47;0.47;;;;;;;10.88;57.16;96164.50;4934593;29;20447;-66
2022/12/28 00:51:29;;;;;;;0.30;0.30;;;;;;;10.69;57.34;96170.84;4934492;29;20459;-64
2022/12/28 00:53:55;;;;;;;1.33;1.13;;;;;;;10.79;57.33;96171.09;4950690;29;20457;-64
2022/12/28 00:56:22;;;;;;;0.30;0.30;;;;;;;10.64;57.59;96168.09;4950555;29;20459;-63
2022/12/28 00:58:54;;;;;;;0.00;0.00;;;;;;;10.30;58.58;96165.38;4934629;29;20447;-65
2022/12/28 01:01:22;;;;;;;0.63;0.37;;;;;;;10.55;58.37;96168.63;4934523;29;20455;-62
2022/12/28 01:03:49;;;;;;;0.40;0.40;;;;;;;10.54;58.42;96170.47;4952135;29;20860;-65
2022/12/28 01:06:18;;;;;;;0.40;0.30;;;;;;;10.60;57.89;96166.94;4951846;29;20475;-67
2022/12/28 01:08:45;;;;;;;0.10;0.10;;;;;;;10.17;59.47;96161.13;4952007;29;20436;-65
2022/12/28 01:11:17;;;;;;;0.13;0.13;;;;;;;10.24;59.46;96171.53;4952112;29;20852;-62
2022/12/28 01:13:45;;;;;;;1.40;0.73;;;;;;;10.03;59.84;96170.13;4951798;29;20490;-63
2022/12/28 01:16:15;;;;;;;1.03;0.47;;;;;;;9.95;60.64;96165.19;4934255;29;20459;-67
2022/12/28 01:18:42;;;;;;;2.63;1.03;;;;;;;9.85;60.53;96167.53;4951535;29;20487;-63
2022/12/28 01:21:13;;;;;;;0.97;0.97;;;;;;;9.80;60.32;96164.75;4934168;29;20498;-66
2022/12/28 01:23:42;;;;;;;1.43;1.33;;;;;;;10.17;59.89;96150.63;4933761;29;20502;-64
2022/12/28 01:26:09;;;;;;;0.37;0.37;;;;;;;10.00;59.82;96157.47;4933598;29;20452;-66
2022/12/28 01:28:38;;;;;;;0.83;0.83;;;;;;;9.96;59.95;96158.94;4951392;28;20467;-67
2022/12/28 01:31:13;;;;;;;0.30;0.23;;;;;;;9.74;60.52;96161.22;4930884;29;20448;-65
2022/12/28 01:33:41;;;;;;;0.57;0.33;;;;;;;10.07;59.79;96155.59;4950648;29;20850;-65
2022/12/28 01:36:15;;;;;;;0.87;0.87;;;;;;;10.06;60.23;96154.78;4950895;29;20439;-67
2022/12/28 01:38:43;;;;;;;0.63;0.63;;;;;;;10.07;59.77;96161.59;4949490;29;20547;-63
2022/12/28 01:41:14;;;;;;;0.37;0.20;;;;;;;9.70;60.73;96154.03;4951503;29;20530;-65
2022/12/28 01:44:03;;;;;;;0.83;0.63;;;;;;;9.71;60.76;96156.41;4951729;29;20494;-65
2022/12/28 01:47:01;;;;;;;0.20;0.20;;;;;;;9.85;59.89;96146.59;4951448;29;20455;-66
2022/12/28 01:49:42;;;;;;;0.87;0.87;;;;;;;9.78;59.82;96146.66;4950682;29;20621;-64
2022/12/28 01:52:29;;;;;;;2.63;1.20;;;;;;;9.79;60.28;96143.03;4951412;29;20466;-64
2022/12/28 01:55:05;;;;;;;0.60;0.60;;;;;;;9.61;60.48;96147.47;4951238;29;20458;-62
2022/12/28 01:57:38;;;;;;;0.57;0.57;;;;;;;9.77;59.83;96144.28;4950889;29;20826;-70
2022/12/28 02:00:10;;;;;;;1.40;1.23;;;;;;;9.62;59.75;96144.63;4935997;29;20439;-66
2022/12/28 02:02:53;;;;;;;0.73;0.73;;;;;;;9.57;60.14;96141.88;4955066;28;20589;-62
2022/12/28 02:05:25;;;;;;;0.10;0.10;;;;;;;9.54;60.15;96139.72;4955331;29;20965;-68
2022/12/28 02:07:58;;;;;;;1.37;1.27;;;;;;;9.70;59.20;96138.31;4954865;29;20954;-63
2022/12/28 02:10:25;;;;;;;1.50;1.40;;;;;;;9.69;59.22;96141.97;4937624;29;20971;-63
2022/12/28 02:13:13;;;;;;;0.60;0.60;;;;;;;9.73;59.24;96127.41;4955373;29;20696;-67
2022/12/28 02:15:40;;;;;;;0.40;0.40;;;;;;;9.37;59.79;96132.66;4955975;29;20866;-62
2022/12/28 02:18:14;;;;;;;8.60;2.50;;;;;;;9.81;58.60;96140.19;4955292;29;20447;-67
2022/12/28 02:20:45;;;;;;;2.23;1.47;;;;;;;9.55;58.79;96136.06;4954550;29;21266;-64
2022/12/28 02:23:26;;;;;;;0.53;0.53;;;;;;;9.58;58.53;96130.38;4954640;29;20513;-63
2022/12/28 02:26:21;;;;;;;1.77;1.20;;;;;;;9.65;58.32;96130.34;4954568;29;20521;-60
2022/12/28 02:29:18;;;;;;;0.33;0.33;;;;;;;9.67;57.90;96118.59;4954440;29;20930;-66
2022/12/28 02:32:03;;;;;;;1.13;1.00;;;;;;;9.59;58.21;96120.72;4954317;29;20458;-64
2022/12/28 02:35:01;;;;;;;0.20;0.20;;;;;;;9.94;56.71;96116.47;4936992;29;20860;-62
2022/12/28 02:37:40;;;;;;;0.30;0.30;;;;;;;9.71;57.75;96108.50;4938082;29;20542;-65
2022/12/28 02:40:29;;;;;;;1.33;1.23;;;;;;;9.76;57.32;96106.81;4954097;29;20498;-64
2022/12/28 02:42:56;;;;;;;0.57;0.57;;;;;;;9.54;57.91;96107.50;4953099;29;20993;-67
2022/12/28 02:51:33;;;;;;;0.27;0.27;;;;;;;9.75;57.05;96115.69;4954173;29;20455;-62
2022/12/28 02:56:05;;;;;;;1.27;0.63;;;;;;;9.84;56.33;96118.81;4954523;29;20463;-65
2022/12/28 02:57:17;;;;;;;0.50;0.50;;;;;;;9.73;56.24;96117.75;4943698;29;20435;-66
2022/12/28 02:59:53;;;;;;;1.30;1.20;;;;;;;9.91;56.29;96109.03;4953902;29;20454;-64
2022/12/28 03:02:32;;;;;;;0.10;0.10;;;;;;;9.86;55.84;96116.78;4936551;29;20455;-66
2022/12/28 03:04:59;;;;;;;0.40;0.40;;;;;;;9.81;55.17;96109.59;4952880;29;20886;-66
2022/12/28 03:10:28;;;;;;;0.10;0.10;;;;;;;9.72;55.41;96115.34;4952690;28;20866;-66
2022/12/28 03:13:41;;;;;;;0.30;0.30;;;;;;;9.81;55.04;96119.25;4954585;29;20439;-66
2022/12/28 03:16:02;;;;;;;0.20;0.20;;;;;;;9.83;54.54;96109.38;4935738;29;20455;-68
2022/12/28 03:32:58;;;;;;;0.40;0.40;;;;;;;9.91;53.51;96114.28;4952662;29;20978;-66
2022/12/28 03:35:36;;;;;;;0.30;0.30;;;;;;;10.00;53.45;96123.44;4935792;29;20458;-67
2022/12/28 03:38:03;;;;;;;0.43;0.43;;;;;;;9.47;54.29;96112.03;4953814;29;20822;-66
2022/12/28 03:40:51;;;;;;;1.17;1.10;;;;;;;9.38;54.68;96118.56;4932984;29;20467;-66
2022/12/28 03:43:41;;;;;;;0.30;0.30;;;;;;;9.55;54.69;96125.59;4948083;29;20484;-63
2022/12/28 03:46:30;;;;;;;0.40;0.40;;;;;;;9.60;54.71;96124.97;4935714;29;20974;-64
2022/12/28 03:48:58;;;;;;;1.30;0.83;;;;;;;9.66;54.23;96116.22;4953283;29;21014;-64
2022/12/28 03:51:28;;;;;;;0.50;0.50;;;;;;;9.26;54.24;96109.81;4953434;29;20475;-67
2022/12/28 03:53:59;;;;;;;5.57;1.33;;;;;;;9.14;54.45;96121.00;4935825;29;20456;-67
2022/12/28 03:56:27;;;;;;;1.17;1.07;;;;;;;9.41;53.71;96113.69;4932415;29;20452;-63
2022/12/28 03:58:58;;;;;;;0.17;0.17;;;;;;;9.34;53.40;96107.75;4928975;29;21025;-67
2022/12/28 04:01:33;;;;;;;3.10;1.73;;;;;;;9.18;53.45;96111.72;4923924;29;20447;-61
2022/12/28 04:04:00;;;;;;;0.00;0.00;;;;;;;8.86;53.59;96109.41;4935771;29;20486;-64
2022/12/28 04:06:27;;;;;;;0.20;0.20;;;;;;;8.93;54.48;96110.97;4935468;29;20440;-65
2022/12/28 04:08:56;;;;;;;0.10;0.10;;;;;;;8.97;53.66;96112.13;4935302;29;20451;-63
2022/12/28 04:11:25;;;;;;;1.65;1.08;;;;;;;9.09;53.68;96120.84;4951479;29;20539;-66
2022/12/28 04:13:53;;;;;;;0.20;0.20;;;;;;;8.97;53.50;96112.13;4935108;29;20239;-66
2022/12/28 04:16:21;;;;;;;0.00;0.00;;;;;;;8.88;53.99;96115.22;4935292;29;20440;-63
2022/12/28 04:18:48;;;;;;;0.77;0.77;;;;;;;9.10;53.24;96114.59;4935273;29;20486;-68
2022/12/28 04:21:15;;;;;;;0.27;0.27;;;;;;;9.10;53.39;96109.38;4951240;29;20997;-65
2022/12/28 04:23:43;;;;;;;0.50;0.50;;;;;;;9.19;52.38;96110.72;4933978;29;20852;-62
2022/12/28 04:26:21;;;;;;;0.20;0.20;;;;;;;9.32;51.99;96114.19;4939505;29;20455;-67
2022/12/28 04:28:51;;;;;;;0.00;0.00;;;;;;;9.03;52.27;96121.72;4935714;29;20865;-66
2022/12/28 04:31:18;;;;;;;0.00;0.00;;;;;;;9.01;52.22;96128.97;4952715;29;20452;-66
2022/12/28 04:33:52;;;;;;;0.00;0.00;;;;;;;8.89;52.34;96135.91;4923378;29;20638;-62
2022/12/28 04:36:19;;;;;;;0.70;0.70;;;;;;;9.12;51.93;96146.56;4936281;28;21126;-61
2022/12/28 04:38:48;;;;;;;0.00;0.00;;;;;;;9.49;51.36;96136.16;4936087;29;20543;-66
2022/12/28 04:41:15;;;;;;;0.20;0.20;;;;;;;9.26;51.48;96151.66;4952444;29;20455;-63
2022/12/28 04:43:42;;;;;;;0.10;0.10;;;;;;;9.34;51.52;96148.78;4952285;29;20598;-67
2022/12/28 04:46:11;;;;;;;0.13;0.13;;;;;;;9.19;51.47;96136.88;4952226;29;20870;-67
2022/12/28 04:48:39;;;;;;;0.87;0.83;;;;;;;9.31;51.22;96149.19;4950964;29;20456;-63
2022/12/28 04:51:14;;;;;;;0.73;0.73;;;;;;;9.32;51.06;96156.03;4951781;29;20486;-63
2022/12/28 04:53:41;;;;;;;0.23;0.23;;;;;;;9.57;50.71;96154.97;4952009;29;20443;-66
2022/12/28 04:56:09;;;;;;;0.40;0.40;;;;;;;9.55;50.26;96150.97;4952076;29;20452;-62
2022/12/28 04:58:37;;;;;;;0.83;0.73;;;;;;;9.34;50.67;96159.25;4951888;29;20482;-66
2022/12/28 05:01:05;;;;;;;0.10;0.10;;;;;;;9.44;50.73;96159.53;4950844;29;20456;-69
2022/12/28 05:03:33;;;;;;;0.20;0.20;;;;;;;9.26;50.81;96167.34;4952039;28;20565;-62
2022/12/28 05:06:03;;;;;;;0.23;0.23;;;;;;;9.48;50.32;96160.69;4951409;28;20453;-64
2022/12/28 05:08:31;;;;;;;0.10;0.10;;;;;;;9.27;50.69;96159.28;4951849;29;20510;-64
2022/12/28 05:11:00;;;;;;;0.23;0.23;;;;;;;9.42;50.99;96161.56;4951509;29;20461;-64
2022/12/28 05:13:27;;;;;;;1.03;0.87;;;;;;;9.24;51.35;96149.28;4951841;29;20498;-66
2022/12/28 05:16:07;;;;;;;0.10;0.10;;;;;;;9.38;50.64;96144.72;4951522;29;20514;-67
2022/12/28 05:18:35;;;;;;;3.00;1.40;;;;;;;9.61;50.07;96143.06;4951394;29;20549;-67
2022/12/28 05:21:14;;;;;;;0.77;0.70;;;;;;;9.74;49.54;96144.72;4952046;29;20443;-65
2022/12/28 05:23:41;;;;;;;0.20;0.20;;;;;;;9.52;49.54;96146.19;4951138;29;21113;-65
2022/12/28 05:26:11;;;;;;;0.10;0.10;;;;;;;9.51;48.87;96149.78;4952004;29;20447;-61
2022/12/28 05:28:39;;;;;;;0.00;0.00;;;;;;;9.74;48.69;96152.56;4951113;29;20543;-66
2022/12/28 05:31:09;;;;;;;3.40;1.07;;;;;;;9.47;49.39;96148.66;4951635;29;20471;-66
2022/12/28 05:33:37;;;;;;;0.10;0.10;;;;;;;9.49;50.07;96151.84;4950344;28;20970;-64
2022/12/28 05:36:06;;;;;;;0.50;0.50;;;;;;;9.42;49.64;96158.94;4950906;29;20547;-67
2022/12/28 05:38:34;;;;;;;0.20;0.20;;;;;;;9.44;49.44;96167.38;4951239;29;20454;-65
2022/12/28 05:41:06;;;;;;;0.37;0.37;;;;;;;9.17;49.02;96170.28;4951304;29;20455;-64
2022/12/28 05:43:34;;;;;;;0.20;0.20;;;;;;;9.28;48.66;96170.56;4951030;29;20466;-64
2022/12/28 05:46:03;;;;;;;0.13;0.13;;;;;;;9.21;48.67;96165.41;4962572;28;20492;-63
2022/12/28 05:48:31;;;;;;;0.60;0.60;;;;;;;9.31;47.98;96167.50;4951797;28;20483;-64
2022/12/28 05:51:03;;;;;;;0.10;0.10;;;;;;;9.48;47.99;96176.41;4951262;29;20454;-64
2022/12/28 05:53:32;;;;;;;0.83;0.30;;;;;;;9.08;48.61;96170.75;4938844;29;20967;-63
2022/12/28 05:56:00;;;;;;;0.17;0.17;;;;;;;9.13;48.59;96173.50;4950435;29;20526;-65
2022/12/28 05:58:27;;;;;;;0.20;0.20;;;;;;;8.87;49.03;96185.00;4951465;29;20442;-67
2022/12/28 06:01:04;;;;;;;0.30;0.30;;;;;;;8.88;49.61;96181.38;4965169;28;20749;-67
2022/12/28 06:03:31;;;;;;;0.50;0.50;;;;;;;8.87;48.62;96192.84;4933664;29;20499;-65
2022/12/28 06:06:11;;;;;;;0.13;0.13;;;;;;;8.82;49.30;96184.84;4951234;29;20447;-62
2022/12/28 06:08:38;;;;;;;0.30;0.30;;;;;;;8.66;49.22;96177.53;4950867;29;20455;-62
2022/12/28 06:11:07;;;;;;;0.10;0.10;;;;;;;9.06;49.22;96178.81;4950233;28;20499;-67
2022/12/28 06:13:35;;;;;;;0.00;0.00;;;;;;;9.15;48.82;96181.94;4951226;29;20454;-64
2022/12/28 06:16:29;;;;;;;0.13;0.13;;;;;;;9.09;49.34;96196.69;4950853;29;20451;-64
2022/12/28 06:18:57;;;;;;;0.00;0.00;;;;;;;9.13;48.78;96187.41;4947698;29;20444;-67
2022/12/28 06:21:30;;;;;;;0.60;0.60;;;;;;;9.26;48.55;96194.31;4932604;29;20550;-66
2022/12/28 06:23:59;;;;;;;0.60;0.60;;;;;;;9.32;48.71;96198.72;4948664;29;20497;-65
2022/12/28 06:26:28;;;;;;;0.20;0.20;;;;;;;9.45;49.04;96198.56;4950729;28;20876;-69
2022/12/28 06:28:57;;;;;;;0.20;0.10;;;;;;;9.23;48.86;96190.31;4950564;29;20505;-64
2022/12/28 06:31:26;;;;;;;0.83;0.63;;;;;;;9.44;48.91;96196.16;4950593;29;20443;-64
2022/12/28 06:33:57;;;;;;;0.10;0.10;;;;;;;9.35;48.70;96187.00;4951144;29;20447;-62
2022/12/28 06:36:27;;;;;;;0.03;0.03;;;;;;;9.20;49.03;96185.53;4950780;29;20447;-62
2022/12/28 06:38:56;;;;;;;0.83;0.77;;;;;;;9.34;49.16;96186.22;4950815;29;20935;-65
2022/12/28 06:41:24;;;;;;;0.57;0.40;;;;;;;9.43;48.62;96195.38;4951328;29;20447;-65
2022/12/28 06:43:52;;;;;;;0.00;0.00;;;;;;;9.44;48.99;96202.19;4950604;29;20959;-65
2022/12/28 06:46:20;;;;;;;0.30;0.30;;;;;;;9.31;48.62;96206.75;4952994;28;20474;-64
2022/12/28 06:48:49;;;;;;;0.20;0.20;;;;;;;9.07;49.22;96206.56;4954537;29;20923;-64
2022/12/28 06:51:24;;;;;;;0.00;0.00;;;;;;;9.25;49.13;96218.09;4954053;29;20925;-64
2022/12/28 06:53:53;;;;;;;0.00;0.00;;;;;;;9.33;49.55;96210.75;4954331;29;20451;-63
2022/12/28 06:56:23;;;;;;;1.40;1.23;;;;;;;9.20;49.93;96206.44;4952148;29;20506;-63
2022/12/28 06:58:50;;;;;;;0.60;0.60;;;;;;;9.41;50.01;96204.44;4948696;29;20459;-61
2022/12/28 07:01:30;;;;;;;0.40;0.40;;;;;;;9.56;49.06;96215.38;4954317;29;20451;-66
2022/12/28 07:04:00;;;;;;;0.10;0.10;;;;;;;9.03;49.62;96187.06;4953005;29;20491;-63
2022/12/28 07:06:28;;;;;;;0.47;0.47;;;;;;;8.95;50.35;96216.13;4953666;29;20538;-65
2022/12/28 07:09:00;;;;;;;2.23;1.27;;;;;;;8.96;50.82;96209.03;4953370;29;20951;-60
2022/12/28 07:11:27;;;;;;;1.33;1.33;;;;;;;9.14;51.35;96209.91;4946040;29;20451;-65
2022/12/28 07:13:55;;;;;;;1.73;1.63;;;;;;;9.15;52.11;96205.50;4953600;29;20558;-63
2022/12/28 07:16:23;;;;;;;0.90;0.70;;;;;;;9.41;51.46;96200.03;4953536;29;20447;-68
2022/12/28 07:18:50;;;;;;;2.07;1.50;;;;;;;9.41;51.96;96201.84;4953297;29;20967;-60
2022/12/28 07:21:23;;;;;;;1.30;1.20;;;;;;;9.41;51.42;96201.84;4953404;29;20447;-64
2022/12/28 07:23:52;;;;;;;1.90;1.67;;;;;;;9.21;52.40;96205.41;4952777;29;20836;-63
2022/12/28 07:26:21;;;;;;;3.80;2.67;;;;;;;9.23;52.80;96214.88;4953140;29;20593;-69
2022/12/28 07:28:50;;;;;;;0.93;0.93;;;;;;;9.08;53.61;96212.59;4952631;29;20483;-65
2022/12/28 07:31:20;;;;;;;0.90;0.90;;;;;;;9.06;53.36;96220.66;4953323;29;20498;-67
2022/12/28 07:33:48;;;;;;;3.57;1.67;;;;;;;9.14;53.63;96215.13;4943790;29;20451;-65
2022/12/28 07:36:18;;;;;;;1.03;0.93;;;;;;;9.29;53.36;96214.03;4947619;29;21033;-65
2022/12/28 07:38:45;;;;;;;0.87;0.87;;;;;;;9.48;53.68;96213.03;4943999;29;21065;-70
2022/12/28 07:41:21;;;;;;;1.33;0.80;;;;;;;9.83;52.41;96216.69;4951099;29;20478;-71
2022/12/28 07:43:49;;;;;;;1.00;0.97;;;;;;;9.62;52.87;96224.97;4945085;29;20990;-68
2022/12/28 07:46:21;;;;;;;0.90;0.90;;;;;;;9.88;52.62;96224.69;4941751;29;20455;-69
2022/12/28 07:48:50;;;;;;;1.40;0.50;;;;;;;10.21;51.67;96214.66;4940757;29;20440;-62
2022/12/28 07:51:26;;;;;;;0.30;0.30;;;;;;;10.19;51.30;96216.69;4948656;29;20440;-69
2022/12/28 07:53:53;;;;;;;1.67;1.57;;;;;;;10.19;51.24;96221.94;4949026;29;20447;-69
2022/12/28 07:56:21;;;;;;;1.23;0.97;;;;;;;10.17;51.29;96224.78;4943462;29;20451;-65
2022/12/28 07:58:54;;;;;;;0.50;0.50;;;;;;;9.81;52.41;96223.97;4945081;29;20443;-66
2022/12/28 08:01:24;;;;;;;3.67;1.93;;;;;;;9.94;52.12;96215.97;4946792;29;20456;-66
2022/12/28 08:03:55;;;;;;;1.93;1.83;;;;;;;9.85;51.81;96209.44;4942953;29;20502;-67
2022/12/28 08:06:23;;;;;;;0.30;0.30;;;;;;;9.87;52.57;96223.09;4948447;29;20926;-71
2022/12/28 08:08:54;;;;;;;0.70;0.70;;;;;;;9.89;52.57;96226.31;4945875;29;20447;-69
2022/12/28 08:11:24;;;;;;;0.60;0.60;;;;;;;9.95;52.25;96214.94;4945897;29;20458;-65
2022/12/28 08:13:53;;;;;;;0.10;0.10;;;;;;;9.76;53.01;96221.22;4942704;29;20551;-66
2022/12/28 08:16:22;;;;;;;0.93;0.93;;;;;;;9.80;52.58;96217.13;4942345;29;20530;-67
2022/12/28 08:18:49;;;;;;;0.13;0.13;;;;;;;9.87;52.61;96220.50;4951663;29;20475;-65
2022/12/28 08:21:25;;;;;;;1.70;1.60;;;;;;;9.80;52.46;96224.97;4947683;29;20507;-72
2022/12/28 08:23:52;;;;;;;1.67;0.63;;;;;;;9.74;52.78;96218.81;4942049;29;20943;-73
2022/12/28 08:26:22;;;;;;;0.20;0.20;;;;;;;9.57;52.68;96214.34;4939151;29;20503;-69
2022/12/28 08:28:51;;;;;;;0.27;0.27;;;;;;;9.68;52.09;96224.91;4945785;29;20444;-65
2022/12/28 08:31:23;;;;;;;1.23;0.83;;;;;;;10.03;52.10;96238.22;4946745;29;20447;-64
2022/12/28 08:33:54;;;;;;;2.17;1.00;;;;;;;10.08;51.84;96236.56;4941811;29;20452;-70
2022/12/28 08:36:22;;;;;;;0.53;0.53;;;;;;;9.98;51.54;96227.63;4946346;29;20950;-71
2022/12/28 08:38:49;;;;;;;0.47;0.47;;;;;;;10.01;50.35;96224.56;4932495;29;20542;-71
2022/12/28 08:41:21;;;;;;;2.70;2.10;;;;;;;10.10;50.29;96228.50;4944076;29;20487;-67
2022/12/28 08:43:49;;;;;;;2.53;1.27;;;;;;;10.09;50.44;96229.53;4946683;29;20609;-70
2022/12/28 08:46:27;;;;;;;0.93;0.93;;;;;;;10.12;50.75;96227.28;4948472;29;20468;-64
2022/12/28 08:48:55;;;;;;;0.03;0.03;;;;;;;10.25;49.96;96221.06;4948618;28;20451;-69
2022/12/28 08:51:29;;;;;;;1.10;0.97;;;;;;;10.23;49.76;96223.09;4951454;29;20884;-72
2022/12/28 08:53:58;;;;;;;0.43;0.43;;;;;;;10.03;49.20;96227.75;4947790;29;20444;-64
2022/12/28 08:56:31;;;;;;;0.47;0.47;;;;;;;9.97;49.26;96223.38;4944740;29;21154;-65
2022/12/28 08:58:58;;;;;;;2.33;1.70;;;;;;;9.83;49.84;96220.13;4944893;29;20920;-68
2022/12/28 09:01:28;;;;;;;0.20;0.20;;;;;;;9.97;49.13;96210.28;4944220;29;20482;-68
2022/12/28 09:03:57;;;;;;;0.00;0.00;;;;;;;9.98;48.46;96217.91;4947102;29;20546;-66
2022/12/28 09:06:30;;;;;;;0.40;0.33;;;;;;;10.12;47.78;96213.38;4936095;29;20579;-64
2022/12/28 09:08:58;;;;;;;1.17;1.10;;;;;;;10.10;48.79;96218.03;4948164;29;20480;-64
2022/12/28 09:11:37;;;;;;;0.37;0.37;;;;;;;10.11;48.79;96209.13;4943521;29;20446;-72
2022/12/28 09:14:06;;;;;;;18.33;1.23;;;;;;;9.92;48.94;96205.72;4941328;29;20531;-67
2022/12/28 09:16:34;;;;;;;0.50;0.50;;;;;;;10.03;48.89;96199.75;4944415;29;21013;-64
2022/12/28 09:19:04;;;;;;;2.57;0.93;;;;;;;9.77;49.83;96192.19;4945385;29;20923;-69
2022/12/28 09:21:35;;;;;;;0.20;0.20;;;;;;;9.74;50.71;96186.59;4942858;28;21023;-67
2022/12/28 09:24:03;;;;;;;0.07;0.07;;;;;;;10.03;49.70;96184.03;4944867;29;20873;-72
2022/12/28 09:26:33;;;;;;;1.97;1.43;;;;;;;10.16;49.09;96178.63;4944872;29;21016;-73
2022/12/28 09:29:02;;;;;;;0.50;0.50;;;;;;;9.73;50.06;96179.75;4942412;29;20794;-71
2022/12/28 09:31:31;;;;;;;1.93;1.70;;;;;;;9.83;50.16;96185.28;4939960;29;20448;-69
2022/12/28 09:34:01;;;;;;;0.20;0.20;;;;;;;9.67;50.75;96185.88;4944691;29;20443;-61
2022/12/28 09:36:47;;;;;;;0.00;0.00;;;;;;;9.34;51.79;96188.81;4941360;29;20483;-64
2022/12/28 09:39:17;;;;;;;1.60;0.73;;;;;;;9.88;51.50;96178.38;4925680;29;20876;-61
2022/12/28 09:41:48;;;;;;;0.97;0.97;;;;;;;9.97;51.76;96174.44;4938522;29;20478;-66
2022/12/28 09:44:32;;;;;;;3.80;2.53;;;;;;;9.97;51.19;96163.97;4944707;29;20495;-62
2022/12/28 09:47:18;;;;;;;2.57;2.37;;;;;;;10.02;50.65;96168.53;4945806;29;20514;-64
2022/12/28 09:50:11;;;;;;;1.60;0.80;;;;;;;9.81;49.82;96171.63;4948600;28;20455;-64
2022/12/28 09:52:51;;;;;;;0.40;0.40;;;;;;;9.56;51.96;96168.28;4951473;29;20551;-65
2022/12/28 09:55:19;;;;;;;0.67;0.63;;;;;;;9.65;51.75;96166.97;4952973;28;20447;-70
2022/12/28 09:57:54;;;;;;;3.30;2.87;;;;;;;9.26;51.19;96157.72;4952393;29;20953;-68
2022/12/28 10:00:26;;;;;;;1.33;1.17;;;;;;;9.47;51.88;96169.59;4952249;29;20855;-71
2022/12/28 10:03:01;;;;;;;0.43;0.43;;;;;;;9.62;51.16;96156.91;4952178;29;21025;-67
2022/12/28 10:05:28;;;;;;;0.93;0.93;;;;;;;9.73;51.14;96153.56;4956898;29;20475;-65
2022/12/28 10:07:57;;;;;;;1.00;0.97;;;;;;;10.04;50.44;96148.16;4951066;29;20443;-60
2022/12/28 10:10:27;;;;;;;2.50;2.03;;;;;;;10.16;50.23;96144.59;4953333;29;20502;-65
2022/12/28 10:12:55;;;;;;;3.63;2.43;;;;;;;10.22;49.23;96134.28;4947091;29;20790;-64
2022/12/28 10:15:26;;;;;;;1.10;1.07;;;;;;;9.69;50.31;96141.97;4949180;29;20658;-64
2022/12/28 10:17:54;;;;;;;0.00;0.00;;;;;;;9.82;49.55;96134.75;4956951;29;20459;-64
2022/12/28 10:20:21;;;;;;;0.30;0.30;;;;;;;9.73;49.96;96137.88;4954243;28;20454;-68
2022/12/28 10:22:55;;;;;;;11.20;1.17;;;;;;;10.16;49.42;96133.34;4954443;29;20522;-65
2022/12/28 10:25:24;;;;;;;1.90;1.07;;;;;;;9.92;49.66;96134.22;4954555;29;20475;-69
2022/12/28 10:27:52;;;;;;;0.20;0.20;;;;;;;10.17;48.72;96132.31;4954886;29;20443;-71
2022/12/28 10:30:25;;;;;;;1.27;1.10;;;;;;;10.28;49.74;96121.06;4954538;29;20447;-63
2022/12/28 10:32:55;;;;;;;9.13;4.97;;;;;;;10.13;49.32;96123.28;4953897;29;20452;-65
2022/12/28 10:35:41;;;;;;;7.83;2.67;;;;;;;10.25;49.51;96124.13;4944743;29;20442;-66
2022/12/28 10:38:40;;;;;;;0.50;0.50;;;;;;;10.29;49.13;96120.06;4951051;29;20447;-65
2022/12/28 10:41:14;;;;;;;0.10;0.10;;;;;;;10.44;48.94;96125.66;4935624;29;20466;-68
2022/12/28 10:43:50;;;;;;;0.50;0.50;;;;;;;10.47;48.70;96125.22;4950009;28;20446;-63
2022/12/28 10:46:37;;;;;;;1.90;0.83;;;;;;;10.46;48.22;96128.84;4952625;29;21105;-64
2022/12/28 10:49:14;;;;;;;3.10;1.57;;;;;;;10.76;47.71;96118.31;4954126;29;20538;-63
2022/12/28 10:52:00;;;;;;;0.17;0.17;;;;;;;10.59;48.04;96122.63;4942225;29;20455;-65
2022/12/28 10:54:31;;;;;;;0.47;0.47;;;;;;;10.59;48.18;96122.63;4954269;29;20479;-67
2022/12/28 10:56:58;;;;;;;0.57;0.57;;;;;;;10.36;49.20;96123.38;4953371;29;20452;-65
2022/12/28 10:59:28;;;;;;;0.73;0.73;;;;;;;10.47;49.15;96121.81;4953816;29;20553;-64
2022/12/28 11:02:21;;;;;;;0.87;0.83;;;;;;;10.68;48.18;96110.78;4953716;29;20446;-67
2022/12/28 11:05:00;;;;;;;2.77;1.03;;;;;;;10.52;48.61;96116.69;4953430;29;20936;-65
2022/12/28 11:07:28;;;;;;;0.40;0.40;;;;;;;10.09;49.28;96116.91;4953698;29;20532;-64
2022/12/28 11:10:23;;;;;;;0.60;0.60;;;;;;;10.13;49.78;96125.91;4953662;29;20440;-63
2022/12/28 11:12:59;;;;;;;0.47;0.47;;;;;;;10.60;48.70;96125.00;4942828;29;20883;-63
2022/12/28 11:15:31;;;;;;;1.00;1.00;;;;;;;10.78;49.48;96113.66;4953367;29;20455;-63
2022/12/28 11:18:01;;;;;;;5.77;2.70;;;;;;;11.09;48.34;96116.72;4953347;29;20435;-63
2022/12/28 11:20:37;;;;;;;0.97;0.97;;;;;;;11.12;48.57;96121.53;4953766;29;20502;-69
2022/12/28 11:23:05;;;;;;;1.20;1.20;;;;;;;10.92;48.55;96128.94;4952297;29;20514;-68
2022/12/28 11:25:35;;;;;;;1.23;1.13;;;;;;;10.85;48.60;96127.44;4948378;29;20928;-68
2022/12/28 11:28:10;;;;;;;1.33;1.20;;;;;;;10.60;49.71;96130.25;4946863;29;20471;-65
2022/12/28 11:30:37;;;;;;;1.90;1.73;;;;;;;10.61;49.18;96126.63;4952693;29;20447;-70
2022/12/28 11:33:08;;;;;;;0.93;0.93;;;;;;;10.58;48.86;96132.31;4952264;28;20443;-65
2022/12/28 11:35:38;;;;;;;1.20;1.10;;;;;;;10.73;48.83;96135.28;4952487;29;20446;-70
2022/12/28 11:38:06;;;;;;;1.17;1.17;;;;;;;10.91;48.53;96134.41;4945472;29;20970;-64
2022/12/28 11:40:51;;;;;;;4.27;0.83;;;;;;;10.82;48.93;96139.19;4949417;29;21103;-66
2022/12/28 11:43:47;;;;;;;1.33;1.23;;;;;;;10.69;49.21;96136.75;4948643;29;20451;-62
2022/12/28 11:46:20;;;;;;;0.30;0.30;;;;;;;10.54;49.88;96131.16;4944117;29;20947;-66
2022/12/28 11:48:47;;;;;;;1.20;1.10;;;;;;;10.42;50.70;96127.72;4949880;29;20473;-64
2022/12/28 11:51:13;;;;;;;1.63;1.53;;;;;;;10.73;50.10;96130.06;4949604;29;20814;-62
2022/12/28 11:53:48;;;;;;;0.40;0.40;;;;;;;10.55;50.14;96122.28;4949564;29;20486;-65
2022/12/28 11:56:16;;;;;;;2.50;2.27;;;;;;;10.72;49.78;96123.22;4947973;29;20495;-63
2022/12/28 11:58:58;;;;;;;0.83;0.83;;;;;;;10.60;49.59;96114.53;4946897;29;20448;-65
2022/12/28 12:01:28;;;;;;;2.63;2.43;;;;;;;10.44;49.80;96115.19;4952256;29;20510;-61
2022/12/28 12:03:55;;;;;;;0.83;0.70;;;;;;;10.56;49.38;96109.97;4951542;29;20472;-68
2022/12/28 12:06:46;;;;;;;3.40;2.33;;;;;;;10.49;49.48;96112.69;4946830;29;20483;-67
2022/12/28 12:09:41;;;;;;;0.50;0.50;;;;;;;10.51;48.85;96105.38;4947422;29;20467;-63
2022/12/28 12:12:14;;;;;;;5.77;1.40;;;;;;;10.41;48.86;96104.34;4947277;29;20483;-62
2022/12/28 12:15:07;;;;;;;0.07;0.07;;;;;;;10.48;49.11;96095.38;4951054;29;21035;-69
2022/12/28 12:17:44;;;;;;;2.20;2.00;;;;;;;10.37;49.18;96092.72;4947863;29;20538;-65
2022/12/28 12:20:19;;;;;;;0.83;0.73;;;;;;;10.54;49.26;96081.38;4942585;29;20451;-71
2022/12/28 12:22:56;;;;;;;2.97;2.10;;;;;;;10.67;49.10;96081.16;4952071;29;20498;-63
2022/12/28 12:25:32;;;;;;;0.90;0.90;;;;;;;10.81;48.05;96079.91;4952202;29;20569;-64
2022/12/28 12:28:30;;;;;;;1.00;0.97;;;;;;;10.49;48.90;96073.38;4949647;29;21002;-65